createdAt,value
2022-09-07T00:01:39.955Z,93276.31
2022-09-07T00:04:10.565Z,93279.31
2022-09-07T00:06:40.513Z,93272.75
2022-09-07T00:09:11.851Z,93270.97
2022-09-07T00:11:42.355Z,93277.03
2022-09-07T00:14:12.462Z,93278.09
2022-09-07T00:16:42.487Z,93266.69
2022-09-07T00:19:12.450Z,93268.13
2022-09-07T00:21:42.271Z,93269.63
2022-09-07T00:24:14.529Z,93267.72
2022-09-07T00:26:44.567Z,93277.44
2022-09-07T00:29:14.337Z,93279.63
2022-09-07T00:31:44.363Z,93286.53
2022-09-07T00:34:14.294Z,93279.94
2022-09-07T00:36:44.219Z,93277.25
2022-09-07T00:39:15.629Z,93276.31
2022-09-07T00:41:45.712Z,93281.72
2022-09-07T00:44:59.302Z,93286.63
2022-09-07T00:47:37.491Z,93282.34
2022-09-07T00:52:17.774Z,93276.63
2022-09-07T00:54:51.330Z,93275.78
2022-09-07T00:57:22.395Z,93273.19
2022-09-07T00:59:55.877Z,93275.16
2022-09-07T01:02:27.116Z,93271.06
2022-09-07T01:05:09.370Z,93266.38
2022-09-07T01:07:41.189Z,93275.47
2022-09-07T01:10:12.494Z,93263.13
2022-09-07T01:12:42.412Z,93261.22
2022-09-07T01:15:13.416Z,93258.31
2022-09-07T01:18:00.997Z,93259.88
2022-09-07T01:20:56.431Z,93263.72
2022-09-07T01:24:22.694Z,93256.81
2022-09-07T01:27:49.557Z,93253.38
2022-09-07T01:30:23.549Z,93264.97
2022-09-07T01:33:34.441Z,93255.06
2022-09-07T01:36:19.090Z,93252.56
2022-09-07T01:38:52.902Z,93259.13
2022-09-07T01:41:31.036Z,93260.91
2022-09-07T01:44:06.054Z,93256.03
2022-09-07T01:46:43.760Z,93260.47
2022-09-07T01:49:21.110Z,93264.97
2022-09-07T01:51:57.414Z,93264.97
2022-09-07T01:54:34.149Z,93257.03
2022-09-07T01:57:09.995Z,93253.91
2022-09-07T01:59:45.770Z,93252.84
2022-09-07T02:02:23.149Z,93251.16
2022-09-07T02:04:58.929Z,93245.88
2022-09-07T02:07:35.874Z,93247.34
2022-09-07T02:10:12.229Z,93245.88
2022-09-07T02:12:50.719Z,93239.28
2022-09-07T02:15:28.866Z,93244.09
2022-09-07T02:18:06.210Z,93240.16
2022-09-07T02:20:40.159Z,93235.00
2022-09-07T02:23:18.812Z,93243.03
2022-09-07T02:25:55.622Z,93235.44
2022-09-07T02:28:31.240Z,93231.56
2022-09-07T02:31:01.618Z,93231.78
2022-09-07T02:33:33.574Z,93236.44
2022-09-07T02:36:05.008Z,93238.09
2022-09-07T02:38:37.713Z,93231.31
2022-09-07T02:41:07.968Z,93232.34
2022-09-07T02:43:37.909Z,93237.56
2022-09-07T02:46:26.853Z,93246.44
2022-09-07T02:49:10.177Z,93244.75
2022-09-07T02:51:49.294Z,93245.38
2022-09-07T02:54:41.431Z,93238.94
2022-09-07T02:57:24.974Z,93235.28
2022-09-07T03:00:07.394Z,93234.56
2022-09-07T03:02:49.600Z,93230.28
2022-09-07T03:05:26.569Z,93230.28
2022-09-07T03:08:04.616Z,93232.97
2022-09-07T03:10:35.492Z,93230.50
2022-09-07T03:13:05.553Z,93223.56
2022-09-07T03:15:35.470Z,93226.59
2022-09-07T03:18:05.369Z,93230.81
2022-09-07T03:20:36.770Z,93229.69
2022-09-07T03:23:06.833Z,93230.34
2022-09-07T03:25:36.782Z,93228.38
2022-09-07T03:28:07.330Z,93225.50
2022-09-07T03:30:37.392Z,93226.63
2022-09-07T03:33:07.673Z,93228.94
2022-09-07T03:35:39.330Z,93238.16
2022-09-07T03:38:09.314Z,93241.03
2022-09-07T03:40:39.352Z,93242.94
2022-09-07T03:43:09.290Z,93244.00
2022-09-07T03:45:39.226Z,93250.41
2022-09-07T03:48:09.194Z,93256.13
2022-09-07T03:53:15.974Z,93256.13
2022-09-07T03:55:45.994Z,93260.53
2022-09-07T03:58:16.018Z,93260.53
2022-09-07T04:00:45.946Z,93255.09
2022-09-07T04:03:15.893Z,93258.94
2022-09-07T04:05:45.755Z,93254.19
2022-09-07T04:08:17.409Z,93258.50
2022-09-07T04:10:47.234Z,93260.81
2022-09-07T04:13:17.273Z,93263.97
2022-09-07T04:15:49.049Z,93269.81
2022-09-07T04:18:22.756Z,93275.72
2022-09-07T04:20:53.294Z,93280.81
2022-09-07T04:23:24.670Z,93285.84
2022-09-07T04:25:55.670Z,93281.53
2022-09-07T04:28:27.149Z,93279.16
2022-09-07T04:30:57.207Z,93285.09
2022-09-07T04:33:27.260Z,93284.06
2022-09-07T04:35:57.216Z,93280.50
2022-09-07T04:38:28.804Z,93286.25
2022-09-07T04:41:03.285Z,93285.13
2022-09-07T04:43:33.195Z,93289.31
2022-09-07T04:46:05.644Z,93293.09
2022-09-07T04:48:35.870Z,93284.88
2022-09-07T04:51:10.352Z,93280.63
2022-09-07T04:53:42.030Z,93285.75
2022-09-07T04:56:15.090Z,93289.22
2022-09-07T04:58:46.934Z,93283.38
2022-09-07T05:01:18.820Z,93287.91
2022-09-07T05:03:49.718Z,93293.53
2022-09-07T05:06:21.570Z,93292.38
2022-09-07T05:08:57.050Z,93289.34
2022-09-07T05:11:29.775Z,93292.22
2022-09-07T05:14:00.533Z,93283.19
2022-09-07T05:16:31.309Z,93286.06
2022-09-07T05:19:03.693Z,93283.00
2022-09-07T05:21:35.890Z,93286.88
2022-09-07T05:24:08.410Z,93286.22
2022-09-07T05:26:40.632Z,93281.50
2022-09-07T05:32:00.738Z,93286.03
2022-09-07T05:34:31.110Z,93289.53
2022-09-07T05:37:01.823Z,93294.88
2022-09-07T05:39:33.548Z,93294.13
2022-09-07T05:42:03.455Z,93293.28
2022-09-07T05:44:48.602Z,93289.78
2022-09-07T05:47:18.814Z,93287.91
2022-09-07T05:49:48.787Z,93279.34
2022-09-07T05:52:18.666Z,93288.25
2022-09-07T05:54:50.152Z,93278.72
2022-09-07T05:57:20.004Z,93281.44
2022-09-07T05:59:49.887Z,93279.75
2022-09-07T06:02:19.914Z,93283.16
2022-09-07T06:04:49.868Z,93286.44
2022-09-07T06:07:22.419Z,93285.81
2022-09-07T06:12:49.552Z,93282.53
2022-09-07T06:15:19.780Z,93286.44
2022-09-07T06:17:49.707Z,93283.13
2022-09-07T06:20:19.692Z,93283.25
2022-09-07T06:22:49.601Z,93286.97
2022-09-07T06:25:21.036Z,93278.53
2022-09-07T06:27:54.271Z,93279.09
2022-09-07T06:30:25.695Z,93271.56
2022-09-07T06:32:55.772Z,93283.63
2022-09-07T06:35:25.612Z,93279.25
2022-09-07T06:37:55.518Z,93281.56
2022-09-07T06:40:26.929Z,93272.22
2022-09-07T06:42:56.974Z,93280.06
2022-09-07T06:45:26.940Z,93274.81
2022-09-07T06:47:57.182Z,93281.00
2022-09-07T06:56:09.397Z,93281.53
2022-09-07T06:58:42.428Z,93283.50
2022-09-07T07:01:16.708Z,93282.56
2022-09-07T07:03:47.954Z,93282.66
2022-09-07T07:06:17.755Z,93286.94
2022-09-07T07:08:49.574Z,93287.97
2022-09-07T07:11:19.515Z,93288.38
2022-09-07T07:13:49.397Z,93283.75
2022-09-07T07:16:20.818Z,93289.13
2022-09-07T07:18:52.701Z,93293.13
2022-09-07T07:21:22.794Z,93297.53
2022-09-07T07:23:55.666Z,93309.34
2022-09-07T07:26:27.973Z,93308.63
2022-09-07T07:31:35.372Z,93312.16
2022-09-07T07:34:05.326Z,93311.69
2022-09-07T07:36:35.986Z,93310.06
2022-09-07T07:39:07.626Z,93304.75
2022-09-07T07:44:23.050Z,93306.75
2022-09-07T07:46:53.373Z,93302.59
2022-09-07T07:49:23.634Z,93299.81
2022-09-07T07:54:47.369Z,93307.50
2022-09-07T07:57:19.337Z,93318.25
2022-09-07T07:59:49.170Z,93311.63
2022-09-07T08:02:20.346Z,93309.44
2022-09-07T08:04:50.236Z,93310.72
2022-09-07T08:07:20.775Z,93306.91
2022-09-07T08:09:52.035Z,93311.41
2022-09-07T08:12:26.658Z,93318.06
2022-09-07T08:14:59.624Z,93321.53
2022-09-07T08:17:29.495Z,93307.56
2022-09-07T08:19:59.554Z,93307.06
2022-09-07T08:22:32.968Z,93313.22
2022-09-07T08:25:07.456Z,93306.72
2022-09-07T08:27:37.381Z,93305.19
2022-09-07T08:30:09.072Z,93312.19
2022-09-07T08:32:39.370Z,93316.25
2022-09-07T08:35:09.838Z,93317.19
2022-09-07T08:37:39.600Z,93306.34
2022-09-07T08:40:18.863Z,93307.19
2022-09-07T08:43:15.039Z,93308.44
2022-09-07T08:45:50.236Z,93311.13
2022-09-07T08:48:33.176Z,93311.03
2022-09-07T08:51:11.974Z,93311.72
2022-09-07T08:53:48.380Z,93310.84
2022-09-07T08:56:33.450Z,93307.03
2022-09-07T08:59:09.931Z,93301.78
2022-09-07T09:02:26.317Z,93297.63
2022-09-07T09:04:34.226Z,93292.69
2022-09-07T09:07:14.553Z,93298.13
2022-09-07T09:10:21.736Z,93294.75
2022-09-07T09:13:17.542Z,93293.41
2022-09-07T09:16:06.328Z,93293.50
2022-09-07T09:18:59.390Z,93289.44
2022-09-07T09:21:29.374Z,93282.44
2022-09-07T09:24:09.830Z,93277.22
2022-09-07T09:26:42.027Z,93275.69
2022-09-07T09:29:23.670Z,93271.06
2022-09-07T09:31:53.893Z,93271.63
2022-09-07T09:34:27.957Z,93275.13
2022-09-07T09:36:59.777Z,93270.84
2022-09-07T09:39:35.724Z,93267.00
2022-09-07T09:42:18.974Z,93278.53
2022-09-07T09:44:50.285Z,93273.09
2022-09-07T09:47:33.057Z,93261.50
2022-09-07T09:53:27.929Z,93263.09
2022-09-07T09:55:58.431Z,93261.53
2022-09-07T10:01:28.068Z,93258.75
2022-09-07T10:04:00.959Z,93260.22
2022-09-07T10:06:32.661Z,93255.56
2022-09-07T10:09:05.033Z,93258.28
2022-09-07T10:14:44.151Z,93253.09
2022-09-07T10:17:19.750Z,93237.16
2022-09-07T10:19:50.362Z,93240.81
2022-09-07T10:22:32.759Z,93233.28
2022-09-07T10:25:34.717Z,93247.94
2022-09-07T10:28:21.346Z,93237.75
2022-09-07T10:31:16.881Z,93244.53
2022-09-07T10:36:53.364Z,93235.88
2022-09-07T10:39:30.025Z,93232.03
2022-09-07T10:42:17.809Z,93230.44
2022-09-07T10:45:02.751Z,93222.81
2022-09-07T10:47:48.562Z,93224.38
2022-09-07T10:50:33.413Z,93227.59
2022-09-07T10:53:41.743Z,93224.75
2022-09-07T10:56:19.414Z,93226.22
2022-09-07T10:59:05.690Z,93230.63
2022-09-07T11:01:53.616Z,93223.28
2022-09-07T11:04:44.733Z,93223.72
2022-09-07T11:07:32.793Z,93221.53
2022-09-07T11:10:15.696Z,93217.09
2022-09-07T11:12:47.650Z,93212.69
2022-09-07T11:15:25.049Z,93205.25
2022-09-07T11:18:00.578Z,93204.00
2022-09-07T11:20:35.819Z,93209.25
2022-09-07T11:23:17.289Z,93203.00
2022-09-07T11:26:04.101Z,93205.31
2022-09-07T11:28:46.295Z,93196.72
2022-09-07T11:31:25.194Z,93197.50
2022-09-07T11:36:58.743Z,93189.97
2022-09-07T11:39:35.769Z,93184.22
2022-09-07T11:45:06.633Z,93187.88
2022-09-07T11:47:43.694Z,93187.22
2022-09-07T11:50:19.676Z,93188.22
2022-09-07T11:52:54.533Z,93173.38
2022-09-07T11:55:28.818Z,93182.63
2022-09-07T11:58:30.776Z,93167.69
2022-09-07T12:01:16.190Z,93165.69
2022-09-07T12:04:16.746Z,93172.84
2022-09-07T12:07:13.229Z,93165.34
2022-09-07T12:10:02.540Z,93168.13
2022-09-07T12:12:58.018Z,93171.59
2022-09-07T12:15:38.574Z,93159.94
2022-09-07T12:18:25.118Z,93154.66
2022-09-07T12:20:56.494Z,93162.91
2022-09-07T12:23:32.582Z,93153.91
2022-09-07T12:26:51.753Z,93157.16
2022-09-07T12:29:27.862Z,93152.16
2022-09-07T12:32:07.631Z,93161.94
2022-09-07T12:34:59.025Z,93156.09
2022-09-07T12:37:45.062Z,93148.59
2022-09-07T12:40:51.090Z,93151.22
2022-09-07T12:43:55.771Z,93150.38
2022-09-07T12:46:50.216Z,93153.22
2022-09-07T12:53:30.473Z,93149.94
2022-09-07T12:56:28.452Z,93161.53
2022-09-07T12:59:41.371Z,93158.16
2022-09-07T13:02:36.143Z,93147.50
2022-09-07T13:05:20.523Z,93148.56
2022-09-07T13:08:39.453Z,93146.44
2022-09-07T13:11:33.721Z,93144.03
2022-09-07T13:14:09.434Z,93142.28
2022-09-07T13:20:21.430Z,93141.16
2022-09-07T13:23:20.860Z,93139.31
2022-09-07T13:26:00.692Z,93138.91
2022-09-07T13:28:42.494Z,93139.75
2022-09-07T13:31:45.590Z,93124.66
2022-09-07T13:34:51.234Z,93127.03
2022-09-07T13:37:26.833Z,93124.94
2022-09-07T13:39:59.931Z,93132.09
2022-09-07T13:42:34.564Z,93127.47
2022-09-07T13:45:23.395Z,93126.59
2022-09-07T13:48:03.553Z,93119.03
2022-09-07T13:50:45.272Z,93124.00
2022-09-07T13:54:02.572Z,93126.13
2022-09-07T13:56:43.133Z,93120.91
2022-09-07T13:59:23.165Z,93119.06
2022-09-07T14:01:54.934Z,93120.47
2022-09-07T14:04:28.276Z,93113.31
2022-09-07T14:07:07.112Z,93110.50
2022-09-07T14:09:37.865Z,93107.06
2022-09-07T14:12:17.792Z,93105.75
2022-09-07T14:14:47.614Z,93106.78
2022-09-07T14:17:22.071Z,93115.63
2022-09-07T14:19:53.596Z,93114.38
2022-09-07T14:22:27.955Z,93107.72
2022-09-07T14:25:00.056Z,93120.19
2022-09-07T14:27:35.331Z,93116.69
2022-09-07T14:30:28.516Z,93112.06
2022-09-07T14:33:04.095Z,93115.03
2022-09-07T14:35:38.966Z,93119.38
2022-09-07T14:38:15.879Z,93118.56
2022-09-07T14:40:45.875Z,93114.31
2022-09-07T14:43:31.930Z,93119.59
2022-09-07T14:46:22.238Z,93117.28
2022-09-07T14:48:56.475Z,93114.09
2022-09-07T14:51:35.012Z,93111.63
2022-09-07T14:54:07.810Z,93109.28
2022-09-07T14:56:40.469Z,93118.75
2022-09-07T14:59:38.832Z,93113.06
2022-09-07T15:02:37.504Z,93109.72
2022-09-07T15:05:26.383Z,93113.06
2022-09-07T15:07:58.851Z,93116.03
2022-09-07T15:10:37.420Z,93118.19
2022-09-07T15:13:25.538Z,93116.53
2022-09-07T15:16:03.880Z,93110.19
2022-09-07T15:19:02.512Z,93118.50
2022-09-07T15:21:36.949Z,93106.06
2022-09-07T15:24:07.550Z,93102.88
2022-09-07T15:29:32.810Z,93098.38
2022-09-07T15:32:05.139Z,93109.09
2022-09-07T15:34:35.364Z,93100.84
2022-09-07T15:38:01.110Z,93101.03
2022-09-07T15:39:56.530Z,93088.28
2022-09-07T15:45:16.641Z,93090.72
2022-09-07T15:47:51.169Z,93094.00
2022-09-07T15:56:05.913Z,93094.03
2022-09-07T15:58:35.713Z,93096.47
2022-09-07T16:03:57.956Z,93095.53
2022-09-07T16:06:28.666Z,93095.47
2022-09-07T16:08:59.933Z,93093.25
2022-09-07T16:11:31.302Z,93098.47
2022-09-07T16:14:03.659Z,93108.84
2022-09-07T16:19:23.953Z,93099.50
2022-09-07T16:21:57.463Z,93102.06
2022-09-07T16:24:30.188Z,93094.63
2022-09-07T16:27:00.058Z,93101.16
2022-09-07T16:29:29.932Z,93106.06
2022-09-07T16:34:49.589Z,93104.88
2022-09-07T16:37:19.489Z,93098.81
2022-09-07T16:39:51.763Z,93104.16
2022-09-07T16:42:21.694Z,93109.97
2022-09-07T16:44:53.713Z,93115.88
2022-09-07T16:47:24.580Z,93114.84
2022-09-07T16:49:54.670Z,93118.78
2022-09-07T16:52:25.035Z,93116.75
2022-09-07T16:54:56.398Z,93112.59
2022-09-07T16:57:26.587Z,93120.78
2022-09-07T16:59:56.887Z,93123.59
2022-09-07T17:02:26.682Z,93115.28
2022-09-07T17:04:56.692Z,93123.19
2022-09-07T17:07:26.585Z,93125.44
2022-09-07T17:09:57.997Z,93123.38
2022-09-07T17:12:27.884Z,93126.59
2022-09-07T17:14:57.634Z,93134.91
2022-09-07T17:17:27.627Z,93135.06
2022-09-07T17:19:58.593Z,93137.44
2022-09-07T17:22:29.523Z,93139.94
2022-09-07T17:25:00.976Z,93145.03
2022-09-07T17:27:30.739Z,93141.69
2022-09-07T17:30:00.633Z,93144.16
2022-09-07T17:32:32.943Z,93146.28
2022-09-07T17:35:02.434Z,93158.03
2022-09-07T17:37:32.335Z,93152.75
2022-09-07T17:40:05.738Z,93155.50
2022-09-07T17:45:28.024Z,93159.53
2022-09-07T17:47:57.876Z,93168.81
2022-09-07T17:50:27.713Z,93173.91
2022-09-07T17:52:57.511Z,93177.06
2022-09-07T17:55:28.832Z,93179.09
2022-09-07T17:58:03.727Z,93184.75
2022-09-07T18:00:34.742Z,93190.00
2022-09-07T18:03:04.475Z,93186.94
2022-09-07T18:05:36.318Z,93190.22
2022-09-07T18:08:06.336Z,93193.34
2022-09-07T18:13:36.122Z,93200.63
2022-09-07T18:16:14.355Z,93204.22
2022-09-07T18:18:44.552Z,93207.22
2022-09-07T18:21:17.696Z,93201.16
2022-09-07T18:23:48.659Z,93204.16
2022-09-07T18:26:20.433Z,93203.16
2022-09-07T18:29:18.758Z,93198.94
2022-09-07T18:31:42.680Z,93201.72
2022-09-07T18:34:12.495Z,93201.25
2022-09-07T18:36:43.940Z,93200.28
2022-09-07T18:39:14.941Z,93205.47
2022-09-07T18:41:46.127Z,93207.66
2022-09-07T18:47:06.713Z,93215.38
2022-09-07T18:49:36.536Z,93215.78
2022-09-07T18:53:16.773Z,93209.72
2022-09-07T18:55:46.978Z,93209.13
2022-09-07T18:58:17.316Z,93212.03
2022-09-07T19:00:50.829Z,93210.63
2022-09-07T19:03:20.589Z,93207.25
2022-09-07T19:05:50.727Z,93208.84
2022-09-07T19:08:22.504Z,93216.41
2022-09-07T19:10:52.437Z,93208.53
2022-09-07T19:13:22.586Z,93205.53
2022-09-07T19:15:52.685Z,93199.84
2022-09-07T19:18:22.428Z,93205.81
2022-09-07T19:20:52.413Z,93203.06
2022-09-07T19:23:23.750Z,93204.72
2022-09-07T19:25:54.719Z,93199.72
2022-09-07T19:28:24.716Z,93196.03
2022-09-07T19:30:54.730Z,93198.88
2022-09-07T19:33:25.094Z,93198.19
2022-09-07T19:35:54.958Z,93194.28
2022-09-07T19:38:26.575Z,93203.44
2022-09-07T19:40:59.453Z,93195.72
2022-09-07T19:43:33.373Z,93197.50
2022-09-07T19:46:03.730Z,93196.06
2022-09-07T19:48:34.392Z,93189.28
2022-09-07T19:51:04.768Z,93189.88
2022-09-07T19:53:37.751Z,93198.97
2022-09-07T19:56:09.558Z,93198.34
2022-09-07T19:58:41.999Z,93185.97
2022-09-07T20:01:12.837Z,93189.88
2022-09-07T20:03:43.655Z,93192.03
2022-09-07T20:06:16.098Z,93198.59
2022-09-07T20:08:47.603Z,93209.53
2022-09-07T20:11:19.955Z,93200.25
2022-09-07T20:13:49.755Z,93203.38
2022-09-07T20:16:21.503Z,93192.97
2022-09-07T20:18:51.376Z,93196.34
2022-09-07T20:21:24.074Z,93194.78
2022-09-07T20:23:55.562Z,93200.72
2022-09-07T20:26:25.658Z,93206.34
2022-09-07T20:29:23.378Z,93210.25
2022-09-07T20:31:49.669Z,93205.72
2022-09-07T20:34:19.670Z,93216.91
2022-09-07T20:36:51.715Z,93216.22
2022-09-07T20:39:24.455Z,93216.25
2022-09-07T20:41:54.290Z,93214.34
2022-09-07T20:44:24.121Z,93205.41
2022-09-07T20:46:54.001Z,93206.81
2022-09-07T20:49:23.803Z,93202.47
2022-09-07T20:51:53.619Z,93203.69
2022-09-07T20:54:24.966Z,93200.09
2022-09-07T20:56:54.811Z,93202.63
2022-09-07T20:59:26.015Z,93212.09
2022-09-07T21:01:55.708Z,93204.59
2022-09-07T21:04:26.793Z,93209.66
2022-09-07T21:06:56.639Z,93215.75
2022-09-07T21:09:28.071Z,93218.13
2022-09-07T21:11:57.721Z,93217.69
2022-09-07T21:14:27.455Z,93218.19
2022-09-07T21:16:57.435Z,93216.75
2022-09-07T21:19:27.289Z,93214.44
2022-09-07T21:21:57.258Z,93213.50
2022-09-07T21:24:28.834Z,93214.66
2022-09-07T21:26:58.577Z,93212.31
2022-09-07T21:29:28.338Z,93212.06
2022-09-07T21:31:58.451Z,93214.28
2022-09-07T21:34:28.315Z,93217.06
2022-09-07T21:36:58.242Z,93218.47
2022-09-07T21:39:29.672Z,93215.84
2022-09-07T21:41:59.475Z,93213.06
2022-09-07T21:44:29.314Z,93207.78
2022-09-07T21:46:59.152Z,93203.38
2022-09-07T21:49:28.925Z,93202.94
2022-09-07T21:53:14.872Z,93197.00
2022-09-07T21:55:44.820Z,93199.47
2022-09-07T21:58:14.577Z,93191.44
2022-09-07T22:00:44.408Z,93198.25
2022-09-07T22:03:14.212Z,93201.41
2022-09-07T22:05:44.018Z,93190.97
2022-09-07T22:08:15.959Z,93191.25
2022-09-07T22:10:47.224Z,93193.78
2022-09-07T22:13:17.233Z,93186.84
2022-09-07T22:15:46.991Z,93190.03
2022-09-07T22:18:16.854Z,93191.25
2022-09-07T22:20:46.619Z,93192.28
2022-09-07T22:23:18.059Z,93194.22
2022-09-07T22:25:54.515Z,93191.28
2022-09-07T22:28:24.314Z,93185.69
2022-09-07T22:30:55.098Z,93179.50
2022-09-07T22:33:25.574Z,93176.94
2022-09-07T22:35:55.370Z,93180.50
2022-09-07T22:38:26.695Z,93179.28
2022-09-07T22:40:56.471Z,93185.59
2022-09-07T22:43:26.268Z,93174.78
2022-09-07T22:45:56.158Z,93173.56
2022-09-07T22:48:25.936Z,93173.22
2022-09-07T22:50:57.735Z,93175.38
2022-09-07T22:53:29.449Z,93175.84
2022-09-07T22:55:59.955Z,93169.06
2022-09-07T22:58:30.271Z,93166.56
2022-09-07T23:01:01.734Z,93169.19
2022-09-07T23:03:32.963Z,93159.41
2022-09-07T23:06:03.099Z,93162.63
2022-09-07T23:08:34.284Z,93158.81
2022-09-07T23:11:08.346Z,93161.91
2022-09-07T23:13:38.171Z,93161.53
2022-09-07T23:16:09.539Z,93163.44
2022-09-07T23:18:42.197Z,93156.38
2022-09-07T23:21:13.631Z,93153.16
2022-09-07T23:23:45.101Z,93155.16
2022-09-07T23:26:14.894Z,93151.25
2022-09-07T23:28:44.638Z,93156.38
2022-09-07T23:31:14.617Z,93158.78
2022-09-07T23:33:44.598Z,93146.16
2022-09-07T23:36:14.658Z,93150.41
2022-09-07T23:38:46.175Z,93144.13
2022-09-07T23:41:16.911Z,93139.94
2022-09-07T23:43:46.852Z,93142.78
2022-09-07T23:46:17.529Z,93136.31
2022-09-07T23:48:48.515Z,93137.75
2022-09-07T23:51:23.487Z,93133.50
2022-09-07T23:53:55.512Z,93138.75
2022-09-07T23:56:25.813Z,93137.72
2022-09-07T23:58:55.771Z,93136.59
